sensor_id;sensor_type;location;lat;lon;timestamp;P1;durP1;ratioP1;P2;durP2;ratioP2
53034;SDS011;38923;53.236;6.506;2022-08-21T00:00:17;8.75;;;4.80;;
53034;SDS011;38923;53.236;6.506;2022-08-21T00:02:54;13.43;;;4.57;;
53034;SDS011;38923;53.236;6.506;2022-08-21T00:05:26;12.88;;;4.10;;
53034;SDS011;38923;53.236;6.506;2022-08-21T00:07:58;8.05;;;3.97;;
53034;SDS011;38923;53.236;6.506;2022-08-21T00:10:24;9.40;;;4.50;;
53034;SDS011;38923;53.236;6.506;2022-08-21T00:12:50;10.68;;;4.30;;
53034;SDS011;38923;53.236;6.506;2022-08-21T00:15:18;11.63;;;4.45;;
53034;SDS011;38923;53.236;6.506;2022-08-21T00:17:47;11.63;;;3.92;;
53034;SDS011;38923;53.236;6.506;2022-08-21T00:20:14;9.02;;;4.38;;
53034;SDS011;38923;53.236;6.506;2022-08-21T00:22:41;8.65;;;4.30;;
53034;SDS011;38923;53.236;6.506;2022-08-21T00:25:07;10.27;;;3.97;;
53034;SDS011;38923;53.236;6.506;2022-08-21T00:27:34;7.38;;;4.07;;
53034;SDS011;38923;53.236;6.506;2022-08-21T00:30:00;13.50;;;4.25;;
53034;SDS011;38923;53.236;6.506;2022-08-21T00:32:27;10.40;;;6.82;;
53034;SDS011;38923;53.236;6.506;2022-08-21T00:34:53;8.98;;;4.05;;
53034;SDS011;38923;53.236;6.506;2022-08-21T00:37:19;9.57;;;4.45;;
53034;SDS011;38923;53.236;6.506;2022-08-21T00:39:45;10.40;;;4.00;;
53034;SDS011;38923;53.236;6.506;2022-08-21T00:42:14;10.88;;;3.85;;
53034;SDS011;38923;53.236;6.506;2022-08-21T00:44:42;6.85;;;3.55;;
53034;SDS011;38923;53.236;6.506;2022-08-21T00:47:12;7.55;;;3.60;;
53034;SDS011;38923;53.236;6.506;2022-08-21T00:49:39;13.20;;;3.95;;
53034;SDS011;38923;53.236;6.506;2022-08-21T00:52:07;12.30;;;4.00;;
53034;SDS011;38923;53.236;6.506;2022-08-21T00:54:36;12.70;;;3.85;;
53034;SDS011;38923;53.236;6.506;2022-08-21T00:57:05;7.85;;;3.70;;
53034;SDS011;38923;53.236;6.506;2022-08-21T00:59:36;11.65;;;3.97;;
53034;SDS011;38923;53.236;6.506;2022-08-21T01:02:05;8.50;;;4.20;;
53034;SDS011;38923;53.236;6.506;2022-08-21T01:04:32;12.52;;;4.40;;
53034;SDS011;38923;53.236;6.506;2022-08-21T01:06:58;9.40;;;3.80;;
53034;SDS011;38923;53.236;6.506;2022-08-21T01:09:24;10.55;;;4.18;;
53034;SDS011;38923;53.236;6.506;2022-08-21T01:11:50;10.02;;;4.10;;
53034;SDS011;38923;53.236;6.506;2022-08-21T01:14:16;15.18;;;4.40;;
53034;SDS011;38923;53.236;6.506;2022-08-21T01:16:45;10.52;;;4.43;;
53034;SDS011;38923;53.236;6.506;2022-08-21T01:19:13;11.75;;;4.57;;
53034;SDS011;38923;53.236;6.506;2022-08-21T01:21:42;10.23;;;5.10;;
53034;SDS011;38923;53.236;6.506;2022-08-21T01:24:08;11.93;;;4.35;;
53034;SDS011;38923;53.236;6.506;2022-08-21T01:26:36;8.70;;;4.18;;
53034;SDS011;38923;53.236;6.506;2022-08-21T01:29:05;11.63;;;4.15;;
53034;SDS011;38923;53.236;6.506;2022-08-21T01:31:36;9.02;;;4.28;;
53034;SDS011;38923;53.236;6.506;2022-08-21T01:34:03;11.52;;;4.57;;
53034;SDS011;38923;53.236;6.506;2022-08-21T01:36:29;10.35;;;4.88;;
53034;SDS011;38923;53.236;6.506;2022-08-21T01:38:56;12.65;;;4.60;;
53034;SDS011;38923;53.236;6.506;2022-08-21T01:41:22;9.80;;;4.55;;
53034;SDS011;38923;53.236;6.506;2022-08-21T01:43:47;10.70;;;4.88;;
53034;SDS011;38923;53.236;6.506;2022-08-21T01:46:14;9.73;;;4.55;;
53034;SDS011;38923;53.236;6.506;2022-08-21T01:48:41;7.65;;;4.47;;
53034;SDS011;38923;53.236;6.506;2022-08-21T01:51:07;12.18;;;4.47;;
53034;SDS011;38923;53.236;6.506;2022-08-21T01:53:33;12.25;;;5.03;;
53034;SDS011;38923;53.236;6.506;2022-08-21T01:56:02;12.13;;;4.78;;
53034;SDS011;38923;53.236;6.506;2022-08-21T01:58:30;13.48;;;5.18;;
53034;SDS011;38923;53.236;6.506;2022-08-21T02:00:55;8.27;;;4.95;;
53034;SDS011;38923;53.236;6.506;2022-08-21T02:03:21;15.93;;;5.18;;
53034;SDS011;38923;53.236;6.506;2022-08-21T02:05:47;10.98;;;5.05;;
53034;SDS011;38923;53.236;6.506;2022-08-21T02:08:13;8.32;;;5.10;;
53034;SDS011;38923;53.236;6.506;2022-08-21T02:10:38;10.32;;;4.80;;
53034;SDS011;38923;53.236;6.506;2022-08-21T02:13:06;8.63;;;4.38;;
53034;SDS011;38923;53.236;6.506;2022-08-21T02:15:32;12.38;;;5.00;;
53034;SDS011;38923;53.236;6.506;2022-08-21T02:17:58;14.32;;;5.68;;
53034;SDS011;38923;53.236;6.506;2022-08-21T02:20:39;10.95;;;5.30;;
53034;SDS011;38923;53.236;6.506;2022-08-21T02:23:07;10.93;;;4.93;;
53034;SDS011;38923;53.236;6.506;2022-08-21T02:25:35;9.27;;;5.13;;
53034;SDS011;38923;53.236;6.506;2022-08-21T02:28:03;11.43;;;5.10;;
53034;SDS011;38923;53.236;6.506;2022-08-21T02:30:37;12.10;;;5.45;;
53034;SDS011;38923;53.236;6.506;2022-08-21T02:33:06;13.00;;;5.93;;
53034;SDS011;38923;53.236;6.506;2022-08-21T02:35:32;8.85;;;5.35;;
53034;SDS011;38923;53.236;6.506;2022-08-21T02:38:00;10.60;;;6.10;;
53034;SDS011;38923;53.236;6.506;2022-08-21T02:40:29;10.25;;;5.65;;
53034;SDS011;38923;53.236;6.506;2022-08-21T02:43:00;17.70;;;5.88;;
53034;SDS011;38923;53.236;6.506;2022-08-21T02:45:27;11.65;;;6.07;;
53034;SDS011;38923;53.236;6.506;2022-08-21T02:47:58;11.18;;;5.75;;
53034;SDS011;38923;53.236;6.506;2022-08-21T02:50:30;12.00;;;6.10;;
53034;SDS011;38923;53.236;6.506;2022-08-21T02:53:04;9.48;;;5.95;;
53034;SDS011;38923;53.236;6.506;2022-08-21T02:55:32;12.48;;;5.82;;
53034;SDS011;38923;53.236;6.506;2022-08-21T02:58:00;13.10;;;5.80;;
53034;SDS011;38923;53.236;6.506;2022-08-21T03:00:27;10.60;;;5.32;;
53034;SDS011;38923;53.236;6.506;2022-08-21T03:02:54;13.82;;;6.28;;
53034;SDS011;38923;53.236;6.506;2022-08-21T03:05:21;10.73;;;6.25;;
53034;SDS011;38923;53.236;6.506;2022-08-21T03:07:48;14.55;;;6.15;;
53034;SDS011;38923;53.236;6.506;2022-08-21T03:10:15;15.25;;;6.85;;
53034;SDS011;38923;53.236;6.506;2022-08-21T03:12:41;11.02;;;6.53;;
53034;SDS011;38923;53.236;6.506;2022-08-21T03:15:08;10.88;;;6.22;;
53034;SDS011;38923;53.236;6.506;2022-08-21T03:17:36;14.02;;;7.13;;
53034;SDS011;38923;53.236;6.506;2022-08-21T03:20:03;14.32;;;6.85;;
53034;SDS011;38923;53.236;6.506;2022-08-21T03:22:30;15.05;;;6.57;;
53034;SDS011;38923;53.236;6.506;2022-08-21T03:24:56;11.85;;;6.25;;
53034;SDS011;38923;53.236;6.506;2022-08-21T03:27:22;15.10;;;6.28;;
53034;SDS011;38923;53.236;6.506;2022-08-21T03:29:52;16.15;;;6.45;;
53034;SDS011;38923;53.236;6.506;2022-08-21T03:32:18;13.65;;;6.18;;
53034;SDS011;38923;53.236;6.506;2022-08-21T03:34:45;11.95;;;5.88;;
53034;SDS011;38923;53.236;6.506;2022-08-21T03:37:11;17.10;;;6.57;;
53034;SDS011;38923;53.236;6.506;2022-08-21T03:39:38;11.80;;;5.88;;
53034;SDS011;38923;53.236;6.506;2022-08-21T03:42:04;9.48;;;5.88;;
53034;SDS011;38923;53.236;6.506;2022-08-21T03:44:31;14.68;;;5.93;;
53034;SDS011;38923;53.236;6.506;2022-08-21T03:46:57;9.27;;;5.97;;
53034;SDS011;38923;53.236;6.506;2022-08-21T03:49:23;14.43;;;6.72;;
53034;SDS011;38923;53.236;6.506;2022-08-21T03:51:50;12.05;;;5.53;;
53034;SDS011;38923;53.236;6.506;2022-08-21T03:54:16;12.07;;;6.47;;
53034;SDS011;38923;53.236;6.506;2022-08-21T03:56:41;12.90;;;6.07;;
53034;SDS011;38923;53.236;6.506;2022-08-21T03:59:07;13.68;;;5.80;;
53034;SDS011;38923;53.236;6.506;2022-08-21T04:01:33;11.57;;;5.53;;
53034;SDS011;38923;53.236;6.506;2022-08-21T04:03:59;9.57;;;6.15;;
53034;SDS011;38923;53.236;6.506;2022-08-21T04:06:25;11.48;;;5.80;;
53034;SDS011;38923;53.236;6.506;2022-08-21T04:08:52;13.32;;;6.30;;
53034;SDS011;38923;53.236;6.506;2022-08-21T04:11:18;11.18;;;5.88;;
53034;SDS011;38923;53.236;6.506;2022-08-21T04:13:44;13.30;;;6.25;;
53034;SDS011;38923;53.236;6.506;2022-08-21T04:16:10;11.52;;;5.82;;
53034;SDS011;38923;53.236;6.506;2022-08-21T04:18:37;11.18;;;5.57;;
53034;SDS011;38923;53.236;6.506;2022-08-21T04:21:03;13.68;;;6.82;;
53034;SDS011;38923;53.236;6.506;2022-08-21T04:23:30;10.23;;;6.50;;
53034;SDS011;38923;53.236;6.506;2022-08-21T04:25:56;11.18;;;6.00;;
53034;SDS011;38923;53.236;6.506;2022-08-21T04:28:23;14.85;;;6.57;;
53034;SDS011;38923;53.236;6.506;2022-08-21T04:30:53;11.45;;;6.78;;
53034;SDS011;38923;53.236;6.506;2022-08-21T04:33:20;14.93;;;5.88;;
53034;SDS011;38923;53.236;6.506;2022-08-21T04:35:46;12.07;;;6.57;;
53034;SDS011;38923;53.236;6.506;2022-08-21T04:38:12;10.00;;;5.38;;
53034;SDS011;38923;53.236;6.506;2022-08-21T04:40:38;9.98;;;5.25;;
53034;SDS011;38923;53.236;6.506;2022-08-21T04:43:05;12.73;;;6.22;;
53034;SDS011;38923;53.236;6.506;2022-08-21T04:48:01;9.98;;;5.70;;
53034;SDS011;38923;53.236;6.506;2022-08-21T04:50:47;12.55;;;5.93;;
53034;SDS011;38923;53.236;6.506;2022-08-21T04:53:18;10.38;;;5.25;;
53034;SDS011;38923;53.236;6.506;2022-08-21T04:56:05;11.85;;;5.82;;
53034;SDS011;38923;53.236;6.506;2022-08-21T04:58:37;12.05;;;5.78;;
53034;SDS011;38923;53.236;6.506;2022-08-21T05:01:05;10.70;;;5.63;;
53034;SDS011;38923;53.236;6.506;2022-08-21T05:03:35;14.63;;;5.93;;
53034;SDS011;38923;53.236;6.506;2022-08-21T05:06:03;14.18;;;6.13;;
53034;SDS011;38923;53.236;6.506;2022-08-21T05:08:31;16.45;;;6.07;;
53034;SDS011;38923;53.236;6.506;2022-08-21T05:10:59;10.30;;;5.68;;
53034;SDS011;38923;53.236;6.506;2022-08-21T05:13:25;14.50;;;6.20;;
53034;SDS011;38923;53.236;6.506;2022-08-21T05:15:50;11.25;;;5.60;;
53034;SDS011;38923;53.236;6.506;2022-08-21T05:18:16;8.80;;;5.50;;
53034;SDS011;38923;53.236;6.506;2022-08-21T05:20:42;12.48;;;5.82;;
53034;SDS011;38923;53.236;6.506;2022-08-21T05:23:11;16.75;;;6.20;;
53034;SDS011;38923;53.236;6.506;2022-08-21T05:25:38;11.10;;;6.13;;
53034;SDS011;38923;53.236;6.506;2022-08-21T05:28:04;12.18;;;5.75;;
53034;SDS011;38923;53.236;6.506;2022-08-21T05:30:30;13.65;;;5.97;;
53034;SDS011;38923;53.236;6.506;2022-08-21T05:33:00;11.32;;;5.38;;
53034;SDS011;38923;53.236;6.506;2022-08-21T05:35:28;12.75;;;6.15;;
53034;SDS011;38923;53.236;6.506;2022-08-21T05:37:54;14.57;;;6.20;;
53034;SDS011;38923;53.236;6.506;2022-08-21T05:40:21;11.50;;;5.35;;
53034;SDS011;38923;53.236;6.506;2022-08-21T05:42:47;13.27;;;5.38;;
53034;SDS011;38923;53.236;6.506;2022-08-21T05:45:14;10.75;;;6.18;;
53034;SDS011;38923;53.236;6.506;2022-08-21T05:47:39;12.48;;;5.78;;
53034;SDS011;38923;53.236;6.506;2022-08-21T05:50:05;11.20;;;5.72;;
53034;SDS011;38923;53.236;6.506;2022-08-21T05:52:31;10.20;;;5.47;;
53034;SDS011;38923;53.236;6.506;2022-08-21T05:54:57;12.43;;;5.93;;
53034;SDS011;38923;53.236;6.506;2022-08-21T05:57:23;11.63;;;5.22;;
53034;SDS011;38923;53.236;6.506;2022-08-21T05:59:50;11.25;;;5.45;;
53034;SDS011;38923;53.236;6.506;2022-08-21T06:02:17;11.85;;;5.40;;
53034;SDS011;38923;53.236;6.506;2022-08-21T06:04:43;11.20;;;5.00;;
53034;SDS011;38923;53.236;6.506;2022-08-21T06:07:09;12.57;;;5.05;;
53034;SDS011;38923;53.236;6.506;2022-08-21T06:09:36;12.93;;;4.97;;
53034;SDS011;38923;53.236;6.506;2022-08-21T06:12:04;12.55;;;5.30;;
53034;SDS011;38923;53.236;6.506;2022-08-21T06:14:30;12.32;;;5.05;;
53034;SDS011;38923;53.236;6.506;2022-08-21T06:17:01;17.45;;;5.57;;
53034;SDS011;38923;53.236;6.506;2022-08-21T06:19:28;10.65;;;5.00;;
53034;SDS011;38923;53.236;6.506;2022-08-21T06:21:54;15.27;;;5.22;;
53034;SDS011;38923;53.236;6.506;2022-08-21T06:24:19;10.75;;;5.15;;
53034;SDS011;38923;53.236;6.506;2022-08-21T06:26:45;9.27;;;5.05;;
53034;SDS011;38923;53.236;6.506;2022-08-21T06:29:12;10.52;;;4.63;;
53034;SDS011;38923;53.236;6.506;2022-08-21T06:31:41;12.50;;;5.03;;
53034;SDS011;38923;53.236;6.506;2022-08-21T06:34:07;12.15;;;5.50;;
53034;SDS011;38923;53.236;6.506;2022-08-21T06:36:34;13.25;;;5.65;;
53034;SDS011;38923;53.236;6.506;2022-08-21T06:39:00;10.65;;;4.75;;
53034;SDS011;38923;53.236;6.506;2022-08-21T06:41:26;13.25;;;5.47;;
53034;SDS011;38923;53.236;6.506;2022-08-21T06:43:52;14.27;;;5.50;;
53034;SDS011;38923;53.236;6.506;2022-08-21T06:46:19;11.18;;;5.25;;
53034;SDS011;38923;53.236;6.506;2022-08-21T06:48:46;10.35;;;5.07;;
53034;SDS011;38923;53.236;6.506;2022-08-21T06:51:13;14.15;;;4.85;;
53034;SDS011;38923;53.236;6.506;2022-08-21T06:53:39;14.30;;;5.07;;
53034;SDS011;38923;53.236;6.506;2022-08-21T06:56:05;11.88;;;4.55;;
53034;SDS011;38923;53.236;6.506;2022-08-21T06:58:31;11.65;;;4.32;;
53034;SDS011;38923;53.236;6.506;2022-08-21T07:00:57;12.50;;;4.88;;
53034;SDS011;38923;53.236;6.506;2022-08-21T07:03:24;10.90;;;4.82;;
53034;SDS011;38923;53.236;6.506;2022-08-21T07:05:53;11.77;;;4.68;;
53034;SDS011;38923;53.236;6.506;2022-08-21T07:08:20;15.93;;;4.35;;
53034;SDS011;38923;53.236;6.506;2022-08-21T07:10:46;10.00;;;4.32;;
53034;SDS011;38923;53.236;6.506;2022-08-21T07:13:13;13.23;;;3.65;;
53034;SDS011;38923;53.236;6.506;2022-08-21T07:15:39;10.38;;;3.72;;
53034;SDS011;38923;53.236;6.506;2022-08-21T07:18:05;11.82;;;3.70;;
53034;SDS011;38923;53.236;6.506;2022-08-21T07:20:32;9.38;;;3.88;;
53034;SDS011;38923;53.236;6.506;2022-08-21T07:23:02;8.07;;;3.28;;
53034;SDS011;38923;53.236;6.506;2022-08-21T07:25:30;9.88;;;3.05;;
53034;SDS011;38923;53.236;6.506;2022-08-21T07:27:56;9.77;;;2.70;;
53034;SDS011;38923;53.236;6.506;2022-08-21T07:30:25;12.20;;;2.72;;
53034;SDS011;38923;53.236;6.506;2022-08-21T07:32:51;9.13;;;3.10;;
53034;SDS011;38923;53.236;6.506;2022-08-21T07:35:17;9.50;;;2.53;;
53034;SDS011;38923;53.236;6.506;2022-08-21T07:37:44;8.23;;;2.33;;
53034;SDS011;38923;53.236;6.506;2022-08-21T07:40:10;8.43;;;2.50;;
53034;SDS011;38923;53.236;6.506;2022-08-21T07:42:43;6.63;;;2.58;;
53034;SDS011;38923;53.236;6.506;2022-08-21T07:45:11;11.45;;;3.00;;
53034;SDS011;38923;53.236;6.506;2022-08-21T07:47:37;11.60;;;2.72;;
53034;SDS011;38923;53.236;6.506;2022-08-21T07:50:04;9.48;;;2.25;;
53034;SDS011;38923;53.236;6.506;2022-08-21T07:52:31;12.43;;;2.85;;
53034;SDS011;38923;53.236;6.506;2022-08-21T07:54:57;11.70;;;2.67;;
53034;SDS011;38923;53.236;6.506;2022-08-21T07:57:23;11.77;;;2.80;;
53034;SDS011;38923;53.236;6.506;2022-08-21T07:59:49;9.23;;;2.00;;
53034;SDS011;38923;53.236;6.506;2022-08-21T08:02:24;8.32;;;2.40;;
53034;SDS011;38923;53.236;6.506;2022-08-21T08:04:52;12.43;;;2.38;;
53034;SDS011;38923;53.236;6.506;2022-08-21T08:07:18;10.50;;;2.08;;
53034;SDS011;38923;53.236;6.506;2022-08-21T08:09:44;13.75;;;2.83;;
53034;SDS011;38923;53.236;6.506;2022-08-21T08:12:10;10.77;;;2.20;;
53034;SDS011;38923;53.236;6.506;2022-08-21T08:14:43;10.60;;;2.30;;
53034;SDS011;38923;53.236;6.506;2022-08-21T08:17:09;11.43;;;2.50;;
53034;SDS011;38923;53.236;6.506;2022-08-21T08:19:35;12.52;;;2.92;;
53034;SDS011;38923;53.236;6.506;2022-08-21T08:22:01;10.60;;;2.97;;
53034;SDS011;38923;53.236;6.506;2022-08-21T08:24:38;12.77;;;2.50;;
53034;SDS011;38923;53.236;6.506;2022-08-21T08:27:04;14.77;;;2.90;;
53034;SDS011;38923;53.236;6.506;2022-08-21T08:29:29;12.50;;;3.08;;
53034;SDS011;38923;53.236;6.506;2022-08-21T08:31:56;14.23;;;2.70;;
53034;SDS011;38923;53.236;6.506;2022-08-21T08:34:22;9.60;;;3.72;;
53034;SDS011;38923;53.236;6.506;2022-08-21T08:36:48;9.80;;;2.60;;
53034;SDS011;38923;53.236;6.506;2022-08-21T08:39:14;5.97;;;2.47;;
53034;SDS011;38923;53.236;6.506;2022-08-21T08:41:40;12.10;;;3.38;;
53034;SDS011;38923;53.236;6.506;2022-08-21T08:44:08;10.20;;;2.70;;
53034;SDS011;38923;53.236;6.506;2022-08-21T08:46:38;15.68;;;2.97;;
53034;SDS011;38923;53.236;6.506;2022-08-21T08:49:15;12.60;;;2.53;;
53034;SDS011;38923;53.236;6.506;2022-08-21T08:52:00;10.23;;;2.67;;
53034;SDS011;38923;53.236;6.506;2022-08-21T08:57:00;15.27;;;3.08;;
53034;SDS011;38923;53.236;6.506;2022-08-21T08:59:42;12.20;;;2.75;;
53034;SDS011;38923;53.236;6.506;2022-08-21T09:02:10;8.65;;;2.65;;
53034;SDS011;38923;53.236;6.506;2022-08-21T09:04:37;13.20;;;2.72;;
53034;SDS011;38923;53.236;6.506;2022-08-21T09:07:19;13.65;;;3.13;;
53034;SDS011;38923;53.236;6.506;2022-08-21T09:21:00;11.10;;;2.95;;
53034;SDS011;38923;53.236;6.506;2022-08-21T09:26:51;14.52;;;3.35;;
53034;SDS011;38923;53.236;6.506;2022-08-21T09:29:40;11.57;;;2.97;;
53034;SDS011;38923;53.236;6.506;2022-08-21T09:32:14;10.93;;;2.53;;
53034;SDS011;38923;53.236;6.506;2022-08-21T09:34:53;10.05;;;3.10;;
53034;SDS011;38923;53.236;6.506;2022-08-21T09:37:21;9.90;;;2.80;;
53034;SDS011;38923;53.236;6.506;2022-08-21T09:39:46;10.82;;;2.67;;
53034;SDS011;38923;53.236;6.506;2022-08-21T09:42:21;11.23;;;2.88;;
53034;SDS011;38923;53.236;6.506;2022-08-21T09:44:50;7.53;;;2.42;;
53034;SDS011;38923;53.236;6.506;2022-08-21T09:47:31;12.73;;;2.85;;
53034;SDS011;38923;53.236;6.506;2022-08-21T09:50:06;9.73;;;2.60;;
53034;SDS011;38923;53.236;6.506;2022-08-21T09:52:46;10.82;;;3.08;;
53034;SDS011;38923;53.236;6.506;2022-08-21T09:55:23;6.30;;;2.22;;
53034;SDS011;38923;53.236;6.506;2022-08-21T09:58:18;10.10;;;2.03;;
53034;SDS011;38923;53.236;6.506;2022-08-21T10:00:45;9.43;;;2.03;;
53034;SDS011;38923;53.236;6.506;2022-08-21T10:03:21;9.95;;;2.47;;
53034;SDS011;38923;53.236;6.506;2022-08-21T10:05:58;9.57;;;2.67;;
53034;SDS011;38923;53.236;6.506;2022-08-21T10:08:30;9.75;;;2.70;;
53034;SDS011;38923;53.236;6.506;2022-08-21T10:11:06;7.13;;;1.90;;
53034;SDS011;38923;53.236;6.506;2022-08-21T10:26:31;8.17;;;2.03;;
53034;SDS011;38923;53.236;6.506;2022-08-21T10:29:19;4.85;;;1.60;;
53034;SDS011;38923;53.236;6.506;2022-08-21T10:39:51;10.07;;;2.30;;
53034;SDS011;38923;53.236;6.506;2022-08-21T10:42:29;7.35;;;2.03;;
53034;SDS011;38923;53.236;6.506;2022-08-21T10:48:31;8.90;;;2.00;;
53034;SDS011;38923;53.236;6.506;2022-08-21T10:52:12;7.75;;;1.92;;
53034;SDS011;38923;53.236;6.506;2022-08-21T10:56:45;9.50;;;2.63;;
53034;SDS011;38923;53.236;6.506;2022-08-21T11:01:58;7.68;;;2.00;;
53034;SDS011;38923;53.236;6.506;2022-08-21T11:07:21;7.85;;;2.00;;
53034;SDS011;38923;53.236;6.506;2022-08-21T11:09:52;8.73;;;2.17;;
53034;SDS011;38923;53.236;6.506;2022-08-21T11:12:26;10.85;;;2.22;;
53034;SDS011;38923;53.236;6.506;2022-08-21T11:17:38;10.27;;;2.17;;
53034;SDS011;38923;53.236;6.506;2022-08-21T11:23:21;7.43;;;1.73;;
53034;SDS011;38923;53.236;6.506;2022-08-21T11:25:57;9.25;;;2.20;;
53034;SDS011;38923;53.236;6.506;2022-08-21T11:28:33;9.40;;;2.00;;
53034;SDS011;38923;53.236;6.506;2022-08-21T11:31:26;9.13;;;2.13;;
53034;SDS011;38923;53.236;6.506;2022-08-21T11:34:04;9.35;;;2.40;;
53034;SDS011;38923;53.236;6.506;2022-08-21T11:36:46;10.85;;;2.30;;
53034;SDS011;38923;53.236;6.506;2022-08-21T11:39:30;7.45;;;2.33;;
53034;SDS011;38923;53.236;6.506;2022-08-21T11:42:30;8.25;;;1.70;;
53034;SDS011;38923;53.236;6.506;2022-08-21T11:45:14;8.25;;;1.92;;
53034;SDS011;38923;53.236;6.506;2022-08-21T11:50:34;7.68;;;2.15;;
53034;SDS011;38923;53.236;6.506;2022-08-21T11:55:47;6.72;;;1.83;;
53034;SDS011;38923;53.236;6.506;2022-08-21T12:00:54;6.20;;;1.73;;
53034;SDS011;38923;53.236;6.506;2022-08-21T12:03:26;7.60;;;1.67;;
53034;SDS011;38923;53.236;6.506;2022-08-21T12:06:00;9.02;;;2.28;;
53034;SDS011;38923;53.236;6.506;2022-08-21T12:08:38;10.07;;;2.08;;
53034;SDS011;38923;53.236;6.506;2022-08-21T12:11:10;4.38;;;1.58;;
53034;SDS011;38923;53.236;6.506;2022-08-21T12:16:33;6.43;;;1.80;;
53034;SDS011;38923;53.236;6.506;2022-08-21T12:19:10;8.57;;;1.45;;
53034;SDS011;38923;53.236;6.506;2022-08-21T12:24:29;5.80;;;1.73;;
53034;SDS011;38923;53.236;6.506;2022-08-21T12:27:14;6.22;;;1.60;;
53034;SDS011;38923;53.236;6.506;2022-08-21T12:30:19;4.78;;;1.40;;
53034;SDS011;38923;53.236;6.506;2022-08-21T12:35:47;4.47;;;1.27;;
53034;SDS011;38923;53.236;6.506;2022-08-21T12:38:27;6.10;;;1.33;;
53034;SDS011;38923;53.236;6.506;2022-08-21T12:40:59;5.50;;;1.27;;
53034;SDS011;38923;53.236;6.506;2022-08-21T12:43:30;8.70;;;1.75;;
53034;SDS011;38923;53.236;6.506;2022-08-21T12:46:05;5.72;;;1.55;;
53034;SDS011;38923;53.236;6.506;2022-08-21T12:54:28;4.90;;;1.40;;
53034;SDS011;38923;53.236;6.506;2022-08-21T12:57:02;6.25;;;0.95;;
53034;SDS011;38923;53.236;6.506;2022-08-21T12:59:31;6.43;;;1.30;;
53034;SDS011;38923;53.236;6.506;2022-08-21T13:01:59;6.18;;;1.42;;
53034;SDS011;38923;53.236;6.506;2022-08-21T13:04:37;4.32;;;1.65;;
53034;SDS011;38923;53.236;6.506;2022-08-21T13:07:07;6.20;;;1.10;;
53034;SDS011;38923;53.236;6.506;2022-08-21T13:09:56;5.75;;;1.02;;
53034;SDS011;38923;53.236;6.506;2022-08-21T13:12:31;4.55;;;1.00;;
53034;SDS011;38923;53.236;6.506;2022-08-21T13:15:00;7.32;;;1.50;;
53034;SDS011;38923;53.236;6.506;2022-08-21T13:17:30;5.47;;;1.05;;
53034;SDS011;38923;53.236;6.506;2022-08-21T13:20:00;7.88;;;1.70;;
53034;SDS011;38923;53.236;6.506;2022-08-21T13:22:43;6.47;;;1.40;;
53034;SDS011;38923;53.236;6.506;2022-08-21T13:25:13;7.60;;;1.70;;
53034;SDS011;38923;53.236;6.506;2022-08-21T13:27:42;6.13;;;1.50;;
53034;SDS011;38923;53.236;6.506;2022-08-21T13:30:20;6.05;;;1.45;;
53034;SDS011;38923;53.236;6.506;2022-08-21T13:32:48;4.65;;;1.27;;
53034;SDS011;38923;53.236;6.506;2022-08-21T13:35:19;7.15;;;1.10;;
53034;SDS011;38923;53.236;6.506;2022-08-21T13:37:54;5.00;;;1.52;;
53034;SDS011;38923;53.236;6.506;2022-08-21T13:41:04;11.35;;;2.05;;
53034;SDS011;38923;53.236;6.506;2022-08-21T13:43:15;10.98;;;1.65;;
53034;SDS011;38923;53.236;6.506;2022-08-21T13:45:44;7.60;;;1.45;;
53034;SDS011;38923;53.236;6.506;2022-08-21T13:48:14;6.03;;;1.35;;
53034;SDS011;38923;53.236;6.506;2022-08-21T13:50:41;10.32;;;2.03;;
53034;SDS011;38923;53.236;6.506;2022-08-21T13:53:19;5.15;;;1.38;;
53034;SDS011;38923;53.236;6.506;2022-08-21T13:56:00;11.77;;;1.80;;
53034;SDS011;38923;53.236;6.506;2022-08-21T13:58:31;7.72;;;1.40;;
53034;SDS011;38923;53.236;6.506;2022-08-21T14:01:15;6.45;;;1.40;;
53034;SDS011;38923;53.236;6.506;2022-08-21T14:03:51;5.95;;;1.30;;
53034;SDS011;38923;53.236;6.506;2022-08-21T14:06:23;9.10;;;1.63;;
53034;SDS011;38923;53.236;6.506;2022-08-21T14:08:56;8.18;;;1.60;;
53034;SDS011;38923;53.236;6.506;2022-08-21T14:11:27;4.15;;;1.33;;
53034;SDS011;38923;53.236;6.506;2022-08-21T14:13:59;4.47;;;1.30;;
53034;SDS011;38923;53.236;6.506;2022-08-21T14:16:29;6.75;;;1.63;;
53034;SDS011;38923;53.236;6.506;2022-08-21T14:19:11;9.63;;;2.13;;
53034;SDS011;38923;53.236;6.506;2022-08-21T14:24:12;8.30;;;1.60;;
53034;SDS011;38923;53.236;6.506;2022-08-21T14:26:51;5.32;;;1.40;;
53034;SDS011;38923;53.236;6.506;2022-08-21T14:29:19;4.28;;;1.35;;
53034;SDS011;38923;53.236;6.506;2022-08-21T14:31:51;10.38;;;1.30;;
53034;SDS011;38923;53.236;6.506;2022-08-21T14:36:47;6.63;;;1.40;;
53034;SDS011;38923;53.236;6.506;2022-08-21T14:39:13;9.65;;;1.42;;
53034;SDS011;38923;53.236;6.506;2022-08-21T14:41:40;9.40;;;1.55;;
53034;SDS011;38923;53.236;6.506;2022-08-21T14:44:07;7.55;;;1.52;;
53034;SDS011;38923;53.236;6.506;2022-08-21T14:46:34;8.75;;;1.30;;
53034;SDS011;38923;53.236;6.506;2022-08-21T14:49:00;6.05;;;1.40;;
53034;SDS011;38923;53.236;6.506;2022-08-21T14:51:27;8.00;;;1.30;;
53034;SDS011;38923;53.236;6.506;2022-08-21T14:53:53;5.05;;;1.30;;
53034;SDS011;38923;53.236;6.506;2022-08-21T14:56:19;7.45;;;1.42;;
53034;SDS011;38923;53.236;6.506;2022-08-21T14:58:46;6.45;;;1.08;;
53034;SDS011;38923;53.236;6.506;2022-08-21T15:01:14;5.55;;;1.73;;
53034;SDS011;38923;53.236;6.506;2022-08-21T15:03:43;4.00;;;1.15;;
53034;SDS011;38923;53.236;6.506;2022-08-21T15:06:09;6.55;;;1.60;;
53034;SDS011;38923;53.236;6.506;2022-08-21T15:08:35;5.38;;;1.38;;
53034;SDS011;38923;53.236;6.506;2022-08-21T15:11:01;5.93;;;1.48;;
53034;SDS011;38923;53.236;6.506;2022-08-21T15:13:29;5.68;;;1.27;;
53034;SDS011;38923;53.236;6.506;2022-08-21T15:15:55;6.07;;;1.55;;
53034;SDS011;38923;53.236;6.506;2022-08-21T15:18:25;9.43;;;1.45;;
53034;SDS011;38923;53.236;6.506;2022-08-21T15:20:52;6.38;;;1.77;;
53034;SDS011;38923;53.236;6.506;2022-08-21T15:23:18;4.95;;;1.05;;
53034;SDS011;38923;53.236;6.506;2022-08-21T15:25:45;5.35;;;1.23;;
53034;SDS011;38923;53.236;6.506;2022-08-21T15:28:12;9.45;;;1.60;;
53034;SDS011;38923;53.236;6.506;2022-08-21T15:30:39;6.90;;;1.50;;
53034;SDS011;38923;53.236;6.506;2022-08-21T15:33:06;5.40;;;1.45;;
53034;SDS011;38923;53.236;6.506;2022-08-21T15:35:32;9.90;;;1.50;;
53034;SDS011;38923;53.236;6.506;2022-08-21T15:37:59;6.65;;;1.50;;
53034;SDS011;38923;53.236;6.506;2022-08-21T15:40:25;6.72;;;1.50;;
53034;SDS011;38923;53.236;6.506;2022-08-21T15:42:52;10.02;;;1.75;;
53034;SDS011;38923;53.236;6.506;2022-08-21T15:45:21;9.40;;;1.42;;
53034;SDS011;38923;53.236;6.506;2022-08-21T15:47:49;5.68;;;1.58;;
53034;SDS011;38923;53.236;6.506;2022-08-21T15:50:15;6.75;;;1.60;;
53034;SDS011;38923;53.236;6.506;2022-08-21T15:52:42;7.28;;;1.33;;
53034;SDS011;38923;53.236;6.506;2022-08-21T15:55:08;7.28;;;1.42;;
53034;SDS011;38923;53.236;6.506;2022-08-21T15:57:34;11.10;;;2.15;;
53034;SDS011;38923;53.236;6.506;2022-08-21T16:00:06;10.88;;;1.63;;
53034;SDS011;38923;53.236;6.506;2022-08-21T16:02:39;6.28;;;1.73;;
53034;SDS011;38923;53.236;6.506;2022-08-21T16:05:09;6.85;;;1.40;;
53034;SDS011;38923;53.236;6.506;2022-08-21T16:07:37;6.93;;;1.45;;
53034;SDS011;38923;53.236;6.506;2022-08-21T16:10:04;7.55;;;1.48;;
53034;SDS011;38923;53.236;6.506;2022-08-21T16:12:32;6.03;;;1.40;;
53034;SDS011;38923;53.236;6.506;2022-08-21T16:15:03;7.60;;;1.38;;
53034;SDS011;38923;53.236;6.506;2022-08-21T16:17:33;11.43;;;1.85;;
53034;SDS011;38923;53.236;6.506;2022-08-21T16:20:00;10.23;;;1.55;;